createdAt,value
2022-12-07T00:01:40.007Z,100777.56
2022-12-07T00:04:10.677Z,100772.84
2022-12-07T00:06:40.451Z,100769.59
2022-12-07T00:09:11.725Z,100762.81
2022-12-07T00:11:39.164Z,100763.63
2022-12-07T00:14:09.152Z,100766.69
2022-12-07T00:16:39.560Z,100765.34
2022-12-07T00:19:07.017Z,100757.25
2022-12-07T00:21:37.397Z,100753.97
2022-12-07T00:24:07.443Z,100755.00
2022-12-07T00:26:37.549Z,100753.34
2022-12-07T00:29:12.577Z,100748.53
2022-12-07T00:31:40.993Z,100745.72
2022-12-07T00:34:13.373Z,100754.13
2022-12-07T00:36:41.112Z,100754.91
2022-12-07T00:39:08.492Z,100759.53
2022-12-07T00:41:35.957Z,100765.19
2022-12-07T00:44:03.769Z,100757.91
2022-12-07T00:46:31.622Z,100761.13
2022-12-07T00:48:59.028Z,100759.50
2022-12-07T00:51:26.901Z,100749.72
2022-12-07T00:53:54.543Z,100744.97
2022-12-07T00:56:28.694Z,100754.41
2022-12-07T00:58:58.592Z,100756.31
2022-12-07T01:01:29.112Z,100756.31
2022-12-07T01:03:56.593Z,100756.00
2022-12-07T01:06:25.433Z,100750.41
2022-12-07T01:08:53.070Z,100757.69
2022-12-07T01:11:24.001Z,100758.50
2022-12-07T01:13:54.006Z,100747.53
2022-12-07T01:16:22.798Z,100757.72
2022-12-07T01:18:52.834Z,100758.03
2022-12-07T01:21:22.126Z,100759.94
2022-12-07T01:23:50.471Z,100761.88
2022-12-07T01:26:22.345Z,100763.47
2022-12-07T01:28:50.131Z,100756.72
2022-12-07T01:31:20.864Z,100756.44
2022-12-07T01:33:51.353Z,100758.03
2022-12-07T01:36:33.047Z,100755.03
2022-12-07T01:39:03.496Z,100770.66
2022-12-07T01:41:34.709Z,100765.56
2022-12-07T01:44:30.877Z,100758.31
2022-12-07T01:47:04.100Z,100760.44
2022-12-07T01:49:52.518Z,100749.44
2022-12-07T01:52:19.876Z,100751.06
2022-12-07T01:54:50.662Z,100753.19
2022-12-07T01:57:18.537Z,100748.91
2022-12-07T01:59:51.967Z,100758.31
2022-12-07T02:02:32.975Z,100753.75
2022-12-07T02:05:05.775Z,100743.56
2022-12-07T02:07:38.590Z,100751.63
2022-12-07T02:10:21.754Z,100750.28
2022-12-07T02:13:00.787Z,100741.69
2022-12-07T02:15:57.785Z,100732.06
2022-12-07T02:19:00.261Z,100735.53
2022-12-07T02:21:41.613Z,100731.78
2022-12-07T02:24:36.777Z,100734.16
2022-12-07T02:27:26.005Z,100729.88
2022-12-07T02:30:05.217Z,100734.19
2022-12-07T02:32:49.862Z,100732.84
2022-12-07T02:35:29.230Z,100724.50
2022-12-07T02:38:31.581Z,100732.28
2022-12-07T02:41:14.562Z,100733.31
2022-12-07T02:43:49.593Z,100734.41
2022-12-07T02:46:24.001Z,100718.06
2022-12-07T02:48:53.722Z,100724.25
2022-12-07T02:51:22.789Z,100725.06
2022-12-07T02:53:50.265Z,100730.41
2022-12-07T02:56:31.512Z,100729.91
2022-12-07T02:59:20.998Z,100738.56
2022-12-07T03:02:12.381Z,100732.34
2022-12-07T03:05:03.678Z,100725.91
2022-12-07T03:07:36.896Z,100737.19
2022-12-07T03:10:29.056Z,100724.03
2022-12-07T03:13:02.385Z,100724.25
2022-12-07T03:15:54.005Z,100720.53
2022-12-07T03:18:24.988Z,100718.06
2022-12-07T03:20:56.141Z,100717.25
2022-12-07T03:23:26.572Z,100725.09
2022-12-07T03:26:00.927Z,100722.13
2022-12-07T03:28:36.122Z,100711.13
2022-12-07T03:31:21.653Z,100706.56
2022-12-07T03:33:58.977Z,100702.78
2022-12-07T03:36:44.657Z,100696.56
2022-12-07T03:39:35.263Z,100691.75
2022-12-07T03:42:06.453Z,100711.38
2022-12-07T03:44:35.745Z,100698.47
2022-12-07T03:47:25.598Z,100690.16
2022-12-07T03:49:59.633Z,100685.56
2022-12-07T03:52:37.389Z,100671.06
2022-12-07T03:55:33.402Z,100689.31
2022-12-07T03:58:08.845Z,100677.22
2022-12-07T04:00:36.633Z,100678.56
2022-12-07T04:03:04.247Z,100676.16
2022-12-07T04:05:31.677Z,100675.09
2022-12-07T04:07:59.072Z,100671.03
2022-12-07T04:10:26.337Z,100660.31
2022-12-07T04:12:53.665Z,100674.81
2022-12-07T04:15:21.041Z,100674.03
2022-12-07T04:17:48.789Z,100666.47
2022-12-07T04:20:16.238Z,100668.63
2022-12-07T04:22:43.710Z,100679.94
2022-12-07T04:25:11.086Z,100670.25
2022-12-07T04:27:38.424Z,100658.44
2022-12-07T04:30:08.988Z,100676.16
2022-12-07T04:32:36.468Z,100674.56
2022-12-07T04:35:04.216Z,100662.97
2022-12-07T04:37:31.643Z,100670.25
2022-12-07T04:39:59.205Z,100661.94
2022-12-07T04:42:26.902Z,100653.56
2022-12-07T04:44:54.197Z,100671.81
2022-12-07T04:47:21.590Z,100675.59
2022-12-07T04:49:50.504Z,100675.88
2022-12-07T04:52:17.876Z,100671.31
2022-12-07T04:54:45.266Z,100655.47
2022-12-07T04:57:12.561Z,100665.69
2022-12-07T04:59:45.292Z,100667.56
2022-12-07T05:02:13.513Z,100672.16
2022-12-07T05:04:40.971Z,100681.81
2022-12-07T05:07:11.239Z,100677.75
2022-12-07T05:09:38.660Z,100682.03
2022-12-07T05:12:06.062Z,100677.22
2022-12-07T05:14:33.415Z,100673.72
2022-12-07T05:17:00.800Z,100673.72
2022-12-07T05:19:28.296Z,100670.75
2022-12-07T05:21:55.722Z,100661.06
2022-12-07T05:24:23.226Z,100664.28
2022-12-07T05:26:50.656Z,100662.16
2022-12-07T05:29:18.601Z,100664.06
2022-12-07T05:31:46.956Z,100665.41
2022-12-07T05:34:14.421Z,100662.75
2022-12-07T05:36:41.760Z,100655.47
2022-12-07T05:39:09.799Z,100662.44
2022-12-07T05:41:55.887Z,100665.94
2022-12-07T05:44:23.621Z,100669.72
2022-12-07T05:46:51.084Z,100663.25
2022-12-07T05:49:18.583Z,100666.47
2022-12-07T05:51:45.894Z,100660.84
2022-12-07T05:54:13.370Z,100651.97
2022-12-07T05:56:40.802Z,100674.25
2022-12-07T05:59:24.854Z,100674.25
2022-12-07T06:01:56.651Z,100670.25
2022-12-07T06:04:24.683Z,100668.34
2022-12-07T06:06:52.085Z,100668.94
2022-12-07T06:09:22.915Z,100676.19
2022-12-07T06:12:08.860Z,100671.34
2022-12-07T06:14:36.342Z,100677.00
2022-12-07T06:17:03.950Z,100678.88
2022-12-07T06:19:31.479Z,100681.84
2022-12-07T06:22:02.103Z,100680.22
2022-12-07T06:24:29.510Z,100666.25
2022-12-07T06:26:56.861Z,100676.47
2022-12-07T06:29:24.375Z,100686.16
2022-12-07T06:31:54.590Z,100677.53
2022-12-07T06:34:24.178Z,100686.16
2022-12-07T06:36:54.378Z,100693.69
2022-12-07T06:39:24.930Z,100687.22
2022-12-07T06:41:55.869Z,100694.50
2022-12-07T06:44:23.938Z,100702.00
2022-12-07T06:46:52.763Z,100706.03
2022-12-07T06:49:23.227Z,100702.56
2022-12-07T06:51:50.509Z,100707.66
2022-12-07T06:54:17.969Z,100712.47
2022-12-07T06:56:47.911Z,100702.56
2022-12-07T06:59:15.249Z,100703.06
2022-12-07T07:01:42.637Z,100702.28
2022-12-07T07:04:10.043Z,100698.22
2022-12-07T07:06:37.433Z,100707.94
2022-12-07T07:09:04.850Z,100716.25
2022-12-07T07:11:32.253Z,100703.59
2022-12-07T07:14:03.151Z,100709.78
2022-12-07T07:16:32.067Z,100707.94
2022-12-07T07:18:59.399Z,100706.56
2022-12-07T07:21:26.731Z,100715.44
2022-12-07T07:23:54.120Z,100715.72
2022-12-07T07:26:23.266Z,100717.03
2022-12-07T07:28:50.839Z,100717.31
2022-12-07T07:31:18.196Z,100720.53
2022-12-07T07:33:48.695Z,100729.66
2022-12-07T07:36:16.018Z,100722.16
2022-12-07T07:38:43.308Z,100708.72
2022-12-07T07:41:10.684Z,100722.16
2022-12-07T07:43:40.620Z,100725.09
2022-12-07T07:46:08.031Z,100731.31
2022-12-07T07:48:35.361Z,100724.56
2022-12-07T07:51:06.961Z,100720.00
2022-12-07T07:53:34.468Z,100722.44
2022-12-07T07:56:01.793Z,100735.88
2022-12-07T07:58:29.109Z,100730.75
2022-12-07T08:00:56.467Z,100732.59
2022-12-07T08:03:23.795Z,100736.13
2022-12-07T08:05:51.119Z,100729.41
2022-12-07T08:08:18.475Z,100730.72
2022-12-07T08:10:48.420Z,100736.66
2022-12-07T08:13:18.931Z,100736.59
2022-12-07T08:15:49.018Z,100731.75
2022-12-07T08:18:18.065Z,100741.72
2022-12-07T08:20:45.491Z,100739.28
2022-12-07T08:23:12.963Z,100730.13
2022-12-07T08:25:40.744Z,100738.47
2022-12-07T08:28:08.449Z,100731.22
2022-12-07T08:30:35.828Z,100732.03
2022-12-07T08:33:03.295Z,100750.84
2022-12-07T08:35:30.592Z,100734.13
2022-12-07T08:37:58.892Z,100739.53
2022-12-07T08:40:26.305Z,100748.06
2022-12-07T08:42:53.888Z,100751.78
2022-12-07T08:45:27.006Z,100749.88
2022-12-07T08:48:09.215Z,100753.09
2022-12-07T08:50:40.365Z,100761.41
2022-12-07T08:53:09.532Z,100754.97
2022-12-07T08:55:39.903Z,100760.31
2022-12-07T08:58:07.267Z,100757.38
2022-12-07T09:00:34.663Z,100745.16
2022-12-07T09:03:02.000Z,100745.13
2022-12-07T09:05:33.763Z,100746.47
2022-12-07T09:08:02.769Z,100744.03
2022-12-07T09:10:31.377Z,100734.06
2022-12-07T09:13:02.282Z,100735.41
2022-12-07T09:15:30.726Z,100737.59
2022-12-07T09:17:58.244Z,100744.81
2022-12-07T09:20:28.047Z,100747.97
2022-12-07T09:22:57.895Z,100747.94
2022-12-07T09:25:25.329Z,100742.72
2022-12-07T09:27:59.741Z,100741.75
2022-12-07T09:30:28.754Z,100739.53
2022-12-07T09:32:57.513Z,100739.25
2022-12-07T09:35:25.959Z,100739.47
2022-12-07T09:37:53.341Z,100742.53
2022-12-07T09:40:23.617Z,100740.84
2022-12-07T09:42:55.969Z,100743.13
2022-12-07T09:45:47.117Z,100743.16
2022-12-07T09:48:23.889Z,100736.59
2022-12-07T09:50:53.396Z,100729.84
2022-12-07T09:53:28.729Z,100723.69
2022-12-07T09:55:56.884Z,100729.31
2022-12-07T09:58:27.543Z,100724.31
2022-12-07T10:00:58.188Z,100707.16
2022-12-07T10:03:30.454Z,100718.78
2022-12-07T10:05:58.265Z,100712.03
2022-12-07T10:08:26.644Z,100709.13
2022-12-07T10:10:57.395Z,100716.03
2022-12-07T10:13:43.312Z,100706.94
2022-12-07T10:16:26.035Z,100702.91
2022-12-07T10:18:53.605Z,100698.09
2022-12-07T10:21:26.730Z,100705.28
2022-12-07T10:24:10.760Z,100711.00
2022-12-07T10:26:50.246Z,100706.31
2022-12-07T10:29:30.978Z,100701.25
2022-12-07T10:32:04.744Z,100703.84
2022-12-07T10:34:42.041Z,100694.19
2022-12-07T10:37:13.616Z,100683.88
2022-12-07T10:39:53.030Z,100679.84
2022-12-07T10:42:23.341Z,100689.56
2022-12-07T10:45:08.043Z,100681.63
2022-12-07T10:47:38.193Z,100677.94
2022-12-07T10:50:50.478Z,100681.97
2022-12-07T10:53:18.946Z,100679.53
2022-12-07T10:55:55.011Z,100677.44
2022-12-07T10:58:48.981Z,100680.31
2022-12-07T11:01:55.936Z,100676.41
2022-12-07T11:04:51.441Z,100667.72
2022-12-07T11:08:14.307Z,100671.72
2022-12-07T11:11:22.431Z,100675.84
2022-12-07T11:13:59.752Z,100669.22
2022-12-07T11:16:44.496Z,100668.00
2022-12-07T11:19:51.992Z,100665.00
2022-12-07T11:22:37.480Z,100667.00
2022-12-07T11:25:21.063Z,100653.78
2022-12-07T11:28:38.325Z,100655.00
2022-12-07T11:31:08.656Z,100655.78
2022-12-07T11:33:53.318Z,100650.69
2022-12-07T11:36:32.779Z,100651.19
2022-12-07T11:39:04.052Z,100640.72
2022-12-07T11:41:39.718Z,100643.31
2022-12-07T11:44:46.185Z,100634.63
2022-12-07T11:47:27.911Z,100632.91
2022-12-07T11:49:57.717Z,100634.84
2022-12-07T11:52:30.953Z,100629.19
2022-12-07T11:55:01.451Z,100620.38
2022-12-07T11:57:42.856Z,100626.72
2022-12-07T12:00:18.246Z,100625.16
2022-12-07T12:02:53.615Z,100622.84
2022-12-07T12:05:25.883Z,100616.75
2022-12-07T12:11:27.108Z,100614.94
2022-12-07T12:17:24.454Z,100605.38
2022-12-07T12:20:10.247Z,100604.06
2022-12-07T12:22:42.345Z,100594.88
2022-12-07T12:25:28.952Z,100593.38
2022-12-07T12:28:00.895Z,100597.16
2022-12-07T12:30:32.615Z,100594.06
2022-12-07T12:33:29.846Z,100594.19
2022-12-07T12:36:18.867Z,100583.97
2022-12-07T12:38:50.644Z,100588.50
2022-12-07T12:41:36.385Z,100586.94
2022-12-07T12:44:16.555Z,100586.97
2022-12-07T12:46:52.615Z,100583.09
2022-12-07T12:49:22.505Z,100591.28
2022-12-07T12:51:58.504Z,100577.25
2022-12-07T12:54:29.347Z,100587.03
2022-12-07T12:56:59.397Z,100580.19
2022-12-07T12:59:32.099Z,100584.94
2022-12-07T13:02:07.965Z,100586.47
2022-12-07T13:04:53.468Z,100575.75
2022-12-07T13:07:45.913Z,100575.69
2022-12-07T13:10:31.644Z,100563.88
2022-12-07T13:13:11.887Z,100567.81
2022-12-07T13:15:44.563Z,100568.69
2022-12-07T13:18:30.992Z,100562.53
2022-12-07T13:21:00.037Z,100559.66
2022-12-07T13:23:45.667Z,100562.34
2022-12-07T13:26:33.463Z,100559.84
2022-12-07T13:29:14.136Z,100560.78
2022-12-07T13:31:46.930Z,100555.75
2022-12-07T13:34:39.925Z,100562.69
2022-12-07T13:37:13.854Z,100561.97
2022-12-07T13:40:02.191Z,100557.88
2022-12-07T13:42:32.019Z,100559.97
2022-12-07T13:45:02.580Z,100552.56
2022-12-07T13:47:49.463Z,100548.13
2022-12-07T13:50:34.876Z,100542.88
2022-12-07T13:53:02.750Z,100543.50
2022-12-07T13:55:30.946Z,100543.16
2022-12-07T13:57:58.386Z,100535.66
2022-12-07T14:00:29.049Z,100540.16
2022-12-07T14:03:34.647Z,100548.94
2022-12-07T14:06:26.301Z,100542.44
2022-12-07T14:09:29.656Z,100553.50
2022-12-07T14:11:59.279Z,100552.09
2022-12-07T14:14:36.655Z,100546.91
2022-12-07T14:17:19.839Z,100538.97
2022-12-07T14:19:51.667Z,100546.78
2022-12-07T14:22:39.048Z,100544.00
2022-12-07T14:25:27.769Z,100543.53
2022-12-07T14:28:00.905Z,100545.13
2022-12-07T14:30:34.340Z,100552.25
2022-12-07T14:33:06.118Z,100544.47
2022-12-07T14:35:38.234Z,100553.44
2022-12-07T14:38:05.574Z,100554.72
2022-12-07T14:40:33.477Z,100552.22
2022-12-07T14:43:12.341Z,100552.63
2022-12-07T14:45:42.183Z,100555.75
2022-12-07T14:53:56.968Z,100562.34
2022-12-07T14:56:25.918Z,100561.16
2022-12-07T14:58:53.384Z,100559.53
2022-12-07T15:01:20.870Z,100567.94
2022-12-07T15:03:48.338Z,100569.91
2022-12-07T15:06:17.902Z,100572.44
2022-12-07T15:08:48.519Z,100573.19
2022-12-07T15:11:17.389Z,100571.38
2022-12-07T15:14:03.420Z,100576.47
2022-12-07T15:16:52.493Z,100576.81
2022-12-07T15:19:28.910Z,100589.44
2022-12-07T15:21:58.213Z,100593.72
2022-12-07T15:24:26.583Z,100584.81
2022-12-07T15:26:53.929Z,100585.09
2022-12-07T15:29:23.706Z,100590.75
2022-12-07T15:31:57.572Z,100591.00
2022-12-07T15:34:34.741Z,100594.75
2022-12-07T15:37:07.337Z,100591.66
2022-12-07T15:39:35.123Z,100597.66
2022-12-07T15:42:02.452Z,100591.72
2022-12-07T15:44:48.257Z,100592.34
2022-12-07T15:47:15.720Z,100605.69
2022-12-07T15:49:43.076Z,100604.72
2022-12-07T15:52:10.649Z,100599.75
2022-12-07T15:54:38.053Z,100599.81
2022-12-07T15:57:05.516Z,100600.06
2022-12-07T15:59:32.861Z,100597.97
2022-12-07T16:02:00.368Z,100596.69
2022-12-07T16:04:30.109Z,100598.59
2022-12-07T16:06:58.874Z,100594.91
2022-12-07T16:09:26.549Z,100598.00
2022-12-07T16:11:54.119Z,100592.03
2022-12-07T16:14:22.235Z,100598.59
2022-12-07T16:16:49.656Z,100599.50
2022-12-07T16:19:17.011Z,100604.34
2022-12-07T16:21:44.332Z,100597.97
2022-12-07T16:24:11.710Z,100595.63
2022-12-07T16:26:39.023Z,100590.78
2022-12-07T16:29:06.342Z,100592.03
2022-12-07T16:31:34.867Z,100592.13
2022-12-07T16:34:02.355Z,100590.28
2022-12-07T16:39:19.193Z,100589.78
2022-12-07T16:41:49.095Z,100590.63
2022-12-07T16:44:16.480Z,100594.66
2022-12-07T16:46:43.907Z,100602.47
2022-12-07T16:49:16.317Z,100604.06
2022-12-07T16:51:48.209Z,100606.22
2022-12-07T16:54:15.460Z,100602.00
2022-12-07T16:56:42.934Z,100608.03
2022-12-07T16:59:10.341Z,100605.31
2022-12-07T17:01:38.617Z,100603.59
2022-12-07T17:04:06.235Z,100599.56
2022-12-07T17:06:33.634Z,100606.00
2022-12-07T17:09:01.182Z,100609.91
2022-12-07T17:11:33.779Z,100602.94
2022-12-07T17:14:30.702Z,100595.97
2022-12-07T17:16:58.085Z,100602.22
2022-12-07T17:19:26.221Z,100600.38
2022-12-07T17:21:53.712Z,100588.50
2022-12-07T17:24:21.110Z,100590.34
2022-12-07T17:26:48.572Z,100591.78
2022-12-07T17:29:18.223Z,100599.31
2022-12-07T17:31:51.988Z,100601.00
2022-12-07T17:34:19.733Z,100599.66
2022-12-07T17:36:47.957Z,100597.03
2022-12-07T17:39:18.112Z,100597.75
2022-12-07T17:42:04.228Z,100592.09
2022-12-07T17:44:31.925Z,100598.34
2022-12-07T17:47:02.012Z,100586.97
2022-12-07T17:49:29.880Z,100590.50
2022-12-07T17:52:16.805Z,100589.41
2022-12-07T17:54:44.271Z,100596.50
2022-12-07T17:57:11.617Z,100597.38
2022-12-07T17:59:39.272Z,100602.50
2022-12-07T18:02:06.980Z,100595.91
2022-12-07T18:04:34.426Z,100598.91
2022-12-07T18:07:01.759Z,100600.31
2022-12-07T18:09:29.208Z,100606.28
2022-12-07T18:11:56.800Z,100592.84
2022-12-07T18:14:24.134Z,100593.91
2022-12-07T18:16:51.759Z,100592.69
2022-12-07T18:19:19.231Z,100598.88
2022-12-07T18:21:46.937Z,100607.88
2022-12-07T18:24:16.663Z,100609.25
2022-12-07T18:26:45.185Z,100605.50
2022-12-07T18:29:15.185Z,100604.72
2022-12-07T18:31:42.945Z,100617.88
2022-12-07T18:34:14.284Z,100610.31
2022-12-07T18:36:45.976Z,100608.22
2022-12-07T18:39:14.844Z,100611.97
2022-12-07T18:41:42.571Z,100618.44
2022-12-07T18:44:10.599Z,100633.50
2022-12-07T18:46:38.860Z,100629.19
2022-12-07T18:49:06.258Z,100617.09
2022-12-07T18:51:33.648Z,100619.50
2022-12-07T18:54:02.206Z,100630.53
2022-12-07T18:56:29.749Z,100633.75
2022-12-07T18:59:20.961Z,100630.00
2022-12-07T19:01:50.947Z,100623.25
2022-12-07T19:04:19.043Z,100633.22
2022-12-07T19:06:48.024Z,100637.00
2022-12-07T19:09:16.464Z,100629.72
2022-12-07T19:11:50.099Z,100638.59
2022-12-07T19:14:17.448Z,100639.13
2022-12-07T19:16:45.879Z,100635.91
2022-12-07T19:19:13.316Z,100632.66
2022-12-07T19:21:40.743Z,100638.06
2022-12-07T19:24:08.528Z,100644.78
2022-12-07T19:26:36.023Z,100655.25
2022-12-07T19:29:03.935Z,100651.75
2022-12-07T19:31:31.426Z,100656.31
2022-12-07T19:34:00.006Z,100663.28
2022-12-07T19:36:30.220Z,100656.03
2022-12-07T19:38:57.544Z,100663.03
2022-12-07T19:41:39.165Z,100661.69
2022-12-07T19:44:22.807Z,100662.22
2022-12-07T19:46:51.235Z,100657.13
2022-12-07T19:49:19.804Z,100655.78
2022-12-07T19:51:50.044Z,100659.28
2022-12-07T19:54:19.517Z,100649.88
2022-12-07T19:56:47.942Z,100661.41
2022-12-07T19:59:17.168Z,100662.47
2022-12-07T20:01:44.667Z,100654.97
2022-12-07T20:04:16.653Z,100658.19
2022-12-07T20:06:44.292Z,100663.28
2022-12-07T20:09:12.521Z,100658.19
2022-12-07T20:11:58.434Z,100656.59
2022-12-07T20:14:26.198Z,100653.91
2022-12-07T20:16:54.147Z,100651.50
2022-12-07T20:19:21.949Z,100651.75
2022-12-07T20:21:50.320Z,100657.69
2022-12-07T20:24:23.347Z,100646.94
2022-12-07T20:26:52.082Z,100654.44
2022-12-07T20:29:21.752Z,100654.72
2022-12-07T20:31:49.818Z,100656.59
2022-12-07T20:34:17.929Z,100655.25
2022-12-07T20:36:45.784Z,100665.47
2022-12-07T20:39:13.512Z,100666.78
2022-12-07T20:41:59.966Z,100658.19
2022-12-07T20:44:28.884Z,100659.00
2022-12-07T20:46:56.181Z,100661.41
2022-12-07T20:49:23.555Z,100652.25
2022-12-07T20:51:51.497Z,100656.00
2022-12-07T20:54:18.932Z,100667.81
2022-12-07T20:56:46.363Z,100661.41
2022-12-07T20:59:15.760Z,100656.81
2022-12-07T21:01:44.272Z,100656.03
2022-12-07T21:04:13.903Z,100662.78
2022-12-07T21:06:41.910Z,100655.50
2022-12-07T21:09:10.649Z,100663.00
2022-12-07T21:11:39.384Z,100657.88
2022-12-07T21:14:07.678Z,100659.78
2022-12-07T21:16:35.229Z,100657.66
2022-12-07T21:19:04.184Z,100648.78
2022-12-07T21:21:32.938Z,100650.94
2022-12-07T21:24:02.892Z,100659.00
2022-12-07T21:26:33.956Z,100651.50
2022-12-07T21:29:03.247Z,100657.13
2022-12-07T21:31:31.158Z,100659.28
2022-12-07T21:33:58.703Z,100651.22
2022-12-07T21:36:26.680Z,100658.19
2022-12-07T21:38:54.439Z,100653.63
2022-12-07T21:41:32.899Z,100650.13
2022-12-07T21:44:00.782Z,100650.41
2022-12-07T21:46:33.841Z,100653.34
2022-12-07T21:49:08.322Z,100654.19
2022-12-07T21:51:35.941Z,100657.66
2022-12-07T21:54:04.891Z,100654.19
2022-12-07T21:56:38.106Z,100658.72
2022-12-07T21:59:17.817Z,100656.03
2022-12-07T22:01:47.243Z,100661.97
2022-12-07T22:04:17.554Z,100661.13
2022-12-07T22:06:45.920Z,100668.94
2022-12-07T22:09:13.831Z,100657.91
2022-12-07T22:11:41.414Z,100663.03
2022-12-07T22:14:28.575Z,100670.25
2022-12-07T22:16:57.777Z,100668.91
2022-12-07T22:19:26.153Z,100673.75
2022-12-07T22:21:56.555Z,100674.81
2022-12-07T22:24:23.961Z,100670.16
2022-12-07T22:26:51.380Z,100676.03
2022-12-07T22:29:18.772Z,100663.91
2022-12-07T22:31:52.051Z,100667.13
2022-12-07T22:34:21.173Z,100661.75
2022-12-07T22:36:48.580Z,100663.91
2022-12-07T22:39:16.041Z,100662.38
2022-12-07T22:41:43.390Z,100666.66
2022-12-07T22:44:10.921Z,100655.69
2022-12-07T22:46:38.464Z,100654.25
2022-12-07T22:49:06.265Z,100667.97
2022-12-07T22:51:36.390Z,100661.78
2022-12-07T22:54:06.477Z,100666.53
2022-12-07T22:56:35.953Z,100662.03
2022-12-07T22:59:06.435Z,100668.16
2022-12-07T23:01:34.085Z,100659.06
2022-12-07T23:04:01.742Z,100655.34
2022-12-07T23:06:31.995Z,100647.56
2022-12-07T23:09:01.563Z,100657.78
2022-12-07T23:11:50.481Z,100653.72
2022-12-07T23:14:24.910Z,100649.41
2022-12-07T23:16:52.330Z,100642.72
2022-12-07T23:19:19.751Z,100651.28
2022-12-07T23:21:47.376Z,100650.00
2022-12-07T23:24:15.588Z,100648.09
2022-12-07T23:26:46.182Z,100644.84
2022-12-07T23:29:17.941Z,100652.09
2022-12-07T23:31:52.215Z,100642.41
2022-12-07T23:34:19.808Z,100640.84
2022-12-07T23:36:47.186Z,100630.63
2022-12-07T23:39:14.658Z,100633.34
2022-12-07T23:41:42.020Z,100633.63
2022-12-07T23:44:11.274Z,100631.22
2022-12-07T23:46:38.869Z,100636.03
2022-12-07T23:49:07.949Z,100635.25
2022-12-07T23:51:35.857Z,100637.38
2022-12-07T23:54:03.369Z,100630.66
2022-12-07T23:56:33.218Z,100633.06
2022-12-07T23:59:01.138Z,100630.84
